sensor_id;sensor_type;location;lat;lon;timestamp;pressure;altitude;pressure_sealevel;temperature;humidity
7614;BME280;3848;42.016;23.098;2023-04-10T00:01:07;97158.16;;;7.64;100.00
7614;BME280;3848;42.016;23.098;2023-04-10T00:03:35;97151.44;;;7.63;100.00
7614;BME280;3848;42.016;23.098;2023-04-10T00:06:02;97128.59;;;7.47;100.00
7614;BME280;3848;42.016;23.098;2023-04-10T00:08:28;97138.75;;;7.54;100.00
7614;BME280;3848;42.016;23.098;2023-04-10T00:10:55;97143.81;;;7.54;100.00
7614;BME280;3848;42.016;23.098;2023-04-10T00:13:23;97097.38;;;7.29;100.00
7614;BME280;3848;42.016;23.098;2023-04-10T00:15:50;97133.69;;;7.51;100.00
7614;BME280;3848;42.016;23.098;2023-04-10T00:18:17;97096.53;;;7.30;100.00
7614;BME280;3848;42.016;23.098;2023-04-10T00:20:44;97148.06;;;7.68;100.00
7614;BME280;3848;42.016;23.098;2023-04-10T00:23:11;97152.28;;;7.67;100.00
7614;BME280;3848;42.016;23.098;2023-04-10T00:25:37;97145.53;;;7.66;100.00
7614;BME280;3848;42.016;23.098;2023-04-10T00:28:04;97139.63;;;7.62;100.00
7614;BME280;3848;42.016;23.098;2023-04-10T00:30:32;97142.16;;;7.61;100.00
7614;BME280;3848;42.016;23.098;2023-04-10T00:32:59;97137.09;;;7.64;100.00
7614;BME280;3848;42.016;23.098;2023-04-10T00:35:26;97123.59;;;7.59;100.00
7614;BME280;3848;42.016;23.098;2023-04-10T00:37:53;97141.31;;;7.70;100.00
7614;BME280;3848;42.016;23.098;2023-04-10T00:40:21;97132.88;;;7.57;100.00
7614;BME280;3848;42.016;23.098;2023-04-10T00:42:48;97130.34;;;7.61;100.00
7614;BME280;3848;42.016;23.098;2023-04-10T00:45:14;97122.75;;;7.54;100.00
7614;BME280;3848;42.016;23.098;2023-04-10T00:47:42;97137.09;;;7.61;100.00
7614;BME280;3848;42.016;23.098;2023-04-10T00:50:10;97123.53;;;7.47;100.00
7614;BME280;3848;42.016;23.098;2023-04-10T00:52:37;97132.88;;;7.61;100.00
7614;BME280;3848;42.016;23.098;2023-04-10T00:55:04;97142.16;;;7.70;100.00
7614;BME280;3848;42.016;23.098;2023-04-10T00:57:32;97135.47;;;7.75;100.00
7614;BME280;3848;42.016;23.098;2023-04-10T00:59:59;97134.56;;;7.67;100.00
7614;BME280;3848;42.016;23.098;2023-04-10T01:02:26;97128.66;;;7.63;100.00
7614;BME280;3848;42.016;23.098;2023-04-10T01:04:54;97130.34;;;7.63;100.00
7614;BME280;3848;42.016;23.098;2023-04-10T01:07:30;97125.28;;;7.63;100.00
7614;BME280;3848;42.016;23.098;2023-04-10T01:10:07;97127.81;;;7.61;100.00
7614;BME280;3848;42.016;23.098;2023-04-10T01:12:49;97120.22;;;7.57;100.00
7614;BME280;3848;42.016;23.098;2023-04-10T01:15:19;97119.38;;;7.58;100.00
7614;BME280;3848;42.016;23.098;2023-04-10T01:17:50;97126.97;;;7.64;100.00
7614;BME280;3848;42.016;23.098;2023-04-10T01:20:23;97117.72;;;7.64;100.00
7614;BME280;3848;42.016;23.098;2023-04-10T01:23:08;97122.75;;;7.58;100.00
7614;BME280;3848;42.016;23.098;2023-04-10T01:25:42;97126.13;;;7.54;100.00
7614;BME280;3848;42.016;23.098;2023-04-10T01:28:23;97130.34;;;7.54;100.00
7614;BME280;3848;42.016;23.098;2023-04-10T01:30:59;97119.34;;;7.47;100.00
7614;BME280;3848;42.016;23.098;2023-04-10T01:33:41;97113.44;;;7.44;100.00
7614;BME280;3848;42.016;23.098;2023-04-10T01:36:11;97115.09;;;7.39;100.00
7614;BME280;3848;42.016;23.098;2023-04-10T01:38:41;97118.47;;;7.38;100.00
7614;BME280;3848;42.016;23.098;2023-04-10T01:41:09;97109.97;;;7.26;100.00
7614;BME280;3848;42.016;23.098;2023-04-10T01:43:36;97115.88;;;7.24;100.00
7614;BME280;3848;42.016;23.098;2023-04-10T01:46:07;97090.56;;;7.10;100.00
7614;BME280;3848;42.016;23.098;2023-04-10T01:48:35;97124.28;;;7.21;100.00
7614;BME280;3848;42.016;23.098;2023-04-10T01:51:03;97115.03;;;7.23;100.00
7614;BME280;3848;42.016;23.098;2023-04-10T01:53:34;97117.53;;;7.19;100.00
7614;BME280;3848;42.016;23.098;2023-04-10T01:56:01;97111.59;;;7.09;100.00
7614;BME280;3848;42.016;23.098;2023-04-10T01:58:29;97107.31;;;6.97;100.00
7614;BME280;3848;42.016;23.098;2023-04-10T02:00:56;97059.13;;;6.65;100.00
7614;BME280;3848;42.016;23.098;2023-04-10T02:03:24;97111.50;;;6.95;100.00
7614;BME280;3848;42.016;23.098;2023-04-10T02:06:09;97108.13;;;6.92;100.00
7614;BME280;3848;42.016;23.098;2023-04-10T02:08:42;97106.41;;;6.86;100.00
7614;BME280;3848;42.016;23.098;2023-04-10T02:11:14;97095.41;;;6.77;100.00
7614;BME280;3848;42.016;23.098;2023-04-10T02:13:43;97109.72;;;6.79;100.00
7614;BME280;3848;42.016;23.098;2023-04-10T02:16:13;97098.75;;;6.72;100.00
7614;BME280;3848;42.016;23.098;2023-04-10T02:18:44;97100.44;;;6.72;100.00
7614;BME280;3848;42.016;23.098;2023-04-10T02:21:12;97108.00;;;6.73;100.00
7614;BME280;3848;42.016;23.098;2023-04-10T02:23:39;97108.84;;;6.71;100.00
7614;BME280;3848;42.016;23.098;2023-04-10T02:26:06;97113.03;;;6.67;100.00
7614;BME280;3848;42.016;23.098;2023-04-10T02:28:33;97103.69;;;6.59;100.00
7614;BME280;3848;42.016;23.098;2023-04-10T02:31:01;97091.03;;;6.48;100.00
7614;BME280;3848;42.016;23.098;2023-04-10T02:33:27;97102.81;;;6.52;100.00
7614;BME280;3848;42.016;23.098;2023-04-10T02:35:55;97090.09;;;6.41;100.00
7614;BME280;3848;42.016;23.098;2023-04-10T02:38:22;97098.53;;;6.43;100.00
7614;BME280;3848;42.016;23.098;2023-04-10T02:40:49;97101.03;;;6.42;100.00
7614;BME280;3848;42.016;23.098;2023-04-10T02:43:16;97099.38;;;6.44;100.00
7614;BME280;3848;42.016;23.098;2023-04-10T02:45:43;97095.94;;;6.33;100.00
7614;BME280;3848;42.016;23.098;2023-04-10T02:48:09;97105.25;;;6.45;100.00
7614;BME280;3848;42.016;23.098;2023-04-10T02:50:37;97099.38;;;6.44;100.00
7614;BME280;3848;42.016;23.098;2023-04-10T02:53:05;97096.03;;;6.45;100.00
7614;BME280;3848;42.016;23.098;2023-04-10T02:55:32;97102.69;;;6.35;100.00
7614;BME280;3848;42.016;23.098;2023-04-10T02:57:58;97100.19;;;6.37;100.00
7614;BME280;3848;42.016;23.098;2023-04-10T03:00:25;97103.56;;;6.39;100.00
7614;BME280;3848;42.016;23.098;2023-04-10T03:02:52;97111.13;;;6.40;100.00
7614;BME280;3848;42.016;23.098;2023-04-10T03:05:19;97102.72;;;6.43;100.00
7614;BME280;3848;42.016;23.098;2023-04-10T03:07:45;97103.56;;;6.42;100.00
7614;BME280;3848;42.016;23.098;2023-04-10T03:10:14;97106.13;;;6.45;100.00
7614;BME280;3848;42.016;23.098;2023-04-10T03:12:41;97110.38;;;6.48;100.00
7614;BME280;3848;42.016;23.098;2023-04-10T03:15:08;97107.84;;;6.49;100.00
7614;BME280;3848;42.016;23.098;2023-04-10T03:17:35;97101.09;;;6.47;100.00
7614;BME280;3848;42.016;23.098;2023-04-10T03:20:01;97101.97;;;6.52;100.00
7614;BME280;3848;42.016;23.098;2023-04-10T03:22:28;97102.81;;;6.51;100.00
7614;BME280;3848;42.016;23.098;2023-04-10T03:24:57;97104.53;;;6.55;100.00
7614;BME280;3848;42.016;23.098;2023-04-10T03:27:25;97095.25;;;6.54;100.00
7614;BME280;3848;42.016;23.098;2023-04-10T03:29:53;97098.63;;;6.56;100.00
7614;BME280;3848;42.016;23.098;2023-04-10T03:32:20;97090.19;;;6.49;100.00
7614;BME280;3848;42.016;23.098;2023-04-10T03:34:47;97101.16;;;6.57;100.00
7614;BME280;3848;42.016;23.098;2023-04-10T03:37:13;97091.91;;;6.56;100.00
7614;BME280;3848;42.016;23.098;2023-04-10T03:39:40;97102.03;;;6.59;100.00
7614;BME280;3848;42.016;23.098;2023-04-10T03:42:07;97106.22;;;6.57;100.00
7614;BME280;3848;42.016;23.098;2023-04-10T03:44:35;97103.69;;;6.57;100.00
7614;BME280;3848;42.016;23.098;2023-04-10T03:47:02;97104.53;;;6.59;100.00
7614;BME280;3848;42.016;23.098;2023-04-10T03:49:29;97108.69;;;6.50;100.00
7614;BME280;3848;42.016;23.098;2023-04-10T03:51:55;97103.63;;;6.47;100.00
7614;BME280;3848;42.016;23.098;2023-04-10T03:54:24;97101.91;;;6.44;100.00
7614;BME280;3848;42.016;23.098;2023-04-10T03:56:50;97106.06;;;6.39;100.00
7614;BME280;3848;42.016;23.098;2023-04-10T03:59:17;97108.59;;;6.39;100.00
7614;BME280;3848;42.016;23.098;2023-04-10T04:01:45;97093.38;;;6.27;100.00
7614;BME280;3848;42.016;23.098;2023-04-10T04:04:12;97111.97;;;6.42;100.00
7614;BME280;3848;42.016;23.098;2023-04-10T04:06:39;97116.22;;;6.45;100.00
7614;BME280;3848;42.016;23.098;2023-04-10T04:09:06;97109.47;;;6.42;100.00
7614;BME280;3848;42.016;23.098;2023-04-10T04:11:33;97111.13;;;6.37;100.00
7614;BME280;3848;42.016;23.098;2023-04-10T04:14:00;97112.81;;;6.40;100.00
7614;BME280;3848;42.016;23.098;2023-04-10T04:16:26;97106.13;;;6.45;100.00
7614;BME280;3848;42.016;23.098;2023-04-10T04:18:54;97112.03;;;6.46;100.00
7614;BME280;3848;42.016;23.098;2023-04-10T04:21:21;97108.59;;;6.37;100.00
7614;BME280;3848;42.016;23.098;2023-04-10T04:23:48;97120.22;;;6.22;100.00
7614;BME280;3848;42.016;23.098;2023-04-10T04:26:15;97112.50;;;6.03;100.00
7614;BME280;3848;42.016;23.098;2023-04-10T04:28:41;97116.63;;;5.97;100.00
7614;BME280;3848;42.016;23.098;2023-04-10T04:31:08;97116.50;;;5.85;100.00
7614;BME280;3848;42.016;23.098;2023-04-10T04:33:35;97119.84;;;5.84;100.00
7614;BME280;3848;42.016;23.098;2023-04-10T04:36:04;97113.06;;;5.81;100.00
7614;BME280;3848;42.016;23.098;2023-04-10T04:38:31;97103.78;;;5.74;100.00
7614;BME280;3848;42.016;23.098;2023-04-10T04:40:57;97120.69;;;5.84;100.00
7614;BME280;3848;42.016;23.098;2023-04-10T04:43:24;97113.16;;;5.87;100.00
7614;BME280;3848;42.016;23.098;2023-04-10T04:45:51;97125.00;;;5.91;100.00
7614;BME280;3848;42.016;23.098;2023-04-10T04:48:18;97127.47;;;5.88;100.00
7614;BME280;3848;42.016;23.098;2023-04-10T04:50:45;97112.34;;;5.88;100.00
7614;BME280;3848;42.016;23.098;2023-04-10T04:53:13;97124.16;;;5.92;100.00
7614;BME280;3848;42.016;23.098;2023-04-10T04:55:40;97118.28;;;5.93;100.00
7614;BME280;3848;42.016;23.098;2023-04-10T04:58:07;97123.41;;;6.02;100.00
7614;BME280;3848;42.016;23.098;2023-04-10T05:00:34;97125.97;;;6.05;100.00
7614;BME280;3848;42.016;23.098;2023-04-10T05:03:00;97126.00;;;6.08;100.00
7614;BME280;3848;42.016;23.098;2023-04-10T05:05:27;97116.66;;;6.00;100.00
7614;BME280;3848;42.016;23.098;2023-04-10T05:07:54;97117.44;;;5.94;100.00
7614;BME280;3848;42.016;23.098;2023-04-10T05:10:22;97120.09;;;6.05;100.00
7614;BME280;3848;42.016;23.098;2023-04-10T05:12:49;97119.31;;;6.14;100.00
7614;BME280;3848;42.016;23.098;2023-04-10T05:15:16;97132.88;;;6.25;100.00
7614;BME280;3848;42.016;23.098;2023-04-10T05:17:42;97109.97;;;6.03;100.00
7614;BME280;3848;42.016;23.098;2023-04-10T05:20:10;97133.00;;;6.38;100.00
7614;BME280;3848;42.016;23.098;2023-04-10T05:22:37;97124.63;;;6.44;100.00
7614;BME280;3848;42.016;23.098;2023-04-10T05:25:05;97122.88;;;6.37;100.00
7614;BME280;3848;42.016;23.098;2023-04-10T05:27:33;97115.41;;;6.46;100.00
7614;BME280;3848;42.016;23.098;2023-04-10T05:30:00;97124.69;;;6.53;100.00
7614;BME280;3848;42.016;23.098;2023-04-10T05:32:26;97122.00;;;6.30;100.00
7614;BME280;3848;42.016;23.098;2023-04-10T05:34:53;97125.41;;;6.37;100.00
7614;BME280;3848;42.016;23.098;2023-04-10T05:37:20;97122.09;;;6.44;100.00
7614;BME280;3848;42.016;23.098;2023-04-10T05:39:47;97118.78;;;6.50;100.00
7614;BME280;3848;42.016;23.098;2023-04-10T05:42:14;97112.06;;;6.50;100.00
7614;BME280;3848;42.016;23.098;2023-04-10T05:44:43;97121.41;;;6.63;100.00
7614;BME280;3848;42.016;23.098;2023-04-10T05:47:10;97119.72;;;6.65;100.00
7614;BME280;3848;42.016;23.098;2023-04-10T05:49:38;97128.94;;;6.60;100.00
7614;BME280;3848;42.016;23.098;2023-04-10T05:52:04;97103.69;;;6.59;100.00
7614;BME280;3848;42.016;23.098;2023-04-10T05:54:31;97124.03;;;6.79;100.00
7614;BME280;3848;42.016;23.098;2023-04-10T05:56:58;97128.19;;;6.67;100.00
7614;BME280;3848;42.016;23.098;2023-04-10T05:59:26;97127.22;;;6.55;100.00
7614;BME280;3848;42.016;23.098;2023-04-10T06:01:55;97129.72;;;6.49;100.00
7614;BME280;3848;42.016;23.098;2023-04-10T06:04:22;97131.25;;;6.33;100.00
7614;BME280;3848;42.016;23.098;2023-04-10T06:06:49;97128.03;;;6.49;100.00
7614;BME280;3848;42.016;23.098;2023-04-10T06:09:15;97123.16;;;6.69;100.00
7614;BME280;3848;42.016;23.098;2023-04-10T06:11:42;97126.59;;;6.83;100.00
7614;BME280;3848;42.016;23.098;2023-04-10T06:14:09;97114.88;;;6.90;100.00
7614;BME280;3848;42.016;23.098;2023-04-10T06:16:36;97123.34;;;7.04;100.00
7614;BME280;3848;42.016;23.098;2023-04-10T06:19:04;97106.50;;;7.06;100.00
7614;BME280;3848;42.016;23.098;2023-04-10T06:21:31;97120.91;;;7.19;100.00
7614;BME280;3848;42.016;23.098;2023-04-10T06:23:58;97051.56;;;6.64;100.00
7614;BME280;3848;42.016;23.098;2023-04-10T06:26:24;97119.19;;;7.11;100.00
7614;BME280;3848;42.016;23.098;2023-04-10T06:28:52;97104.81;;;7.05;100.00
7614;BME280;3848;42.016;23.098;2023-04-10T07:18:07;97106.03;;;8.79;100.00
7614;BME280;3848;42.016;23.098;2023-04-10T07:20:34;97102.66;;;8.86;100.00
7614;BME280;3848;42.016;23.098;2023-04-10T07:23:01;97109.38;;;8.92;100.00
7614;BME280;3848;42.016;23.098;2023-04-10T07:25:28;97095.03;;;8.88;100.00
7614;BME280;3848;42.016;23.098;2023-04-10T07:27:54;97101.78;;;8.98;100.00
7614;BME280;3848;42.016;23.098;2023-04-10T07:30:21;97103.47;;;8.92;100.00
7614;BME280;3848;42.016;23.098;2023-04-10T07:32:48;97093.34;;;9.01;100.00
7614;BME280;3848;42.016;23.098;2023-04-10T07:35:16;97103.41;;;9.14;100.00
7614;BME280;3848;42.016;23.098;2023-04-10T07:37:44;97101.69;;;9.30;100.00
7614;BME280;3848;42.016;23.098;2023-04-10T07:40:15;97094.03;;;9.44;100.00
7614;BME280;3848;42.016;23.098;2023-04-10T07:42:43;97094.75;;;9.70;100.00
7614;BME280;3848;42.016;23.098;2023-04-10T07:45:11;97086.28;;;9.68;100.00
7614;BME280;3848;42.016;23.098;2023-04-10T07:47:38;97082.81;;;9.85;100.00
7614;BME280;3848;42.016;23.098;2023-04-10T07:50:06;97085.16;;;10.23;100.00
7614;BME280;3848;42.016;23.098;2023-04-10T07:52:37;97077.50;;;10.24;100.00
7614;BME280;3848;42.016;23.098;2023-04-10T07:55:05;97080.13;;;10.09;100.00
7614;BME280;3848;42.016;23.098;2023-04-10T07:57:32;97068.22;;;10.22;100.00
7614;BME280;3848;42.016;23.098;2023-04-10T07:59:59;97087.38;;;10.62;100.00
7614;BME280;3848;42.016;23.098;2023-04-10T08:02:26;97081.53;;;10.50;100.00
7614;BME280;3848;42.016;23.098;2023-04-10T08:04:52;97080.47;;;10.72;100.00
7614;BME280;3848;42.016;23.098;2023-04-10T08:07:20;97069.94;;;11.09;100.00
7614;BME280;3848;42.016;23.098;2023-04-10T08:09:48;97070.56;;;11.29;100.00
7614;BME280;3848;42.016;23.098;2023-04-10T08:12:15;97073.22;;;11.17;100.00
7614;BME280;3848;42.016;23.098;2023-04-10T08:14:42;97071.44;;;11.26;100.00
7614;BME280;3848;42.016;23.098;2023-04-10T08:17:09;97070.97;;;11.61;100.00
7614;BME280;3848;42.016;23.098;2023-04-10T08:19:39;97067.56;;;11.63;100.00
7614;BME280;3848;42.016;23.098;2023-04-10T08:22:07;97069.25;;;11.64;100.00
7614;BME280;3848;42.016;23.098;2023-04-10T08:24:34;97060.72;;;11.69;100.00
7614;BME280;3848;42.016;23.098;2023-04-10T08:27:02;97053.81;;;11.77;100.00
7614;BME280;3848;42.016;23.098;2023-04-10T08:29:29;97052.47;;;12.12;100.00
7614;BME280;3848;42.016;23.098;2023-04-10T08:31:57;97050.22;;;12.46;100.00
7614;BME280;3848;42.016;23.098;2023-04-10T08:34:25;97051.50;;;12.70;100.00
7614;BME280;3848;42.016;23.098;2023-04-10T08:36:52;97044.50;;;12.81;100.00
7614;BME280;3848;42.016;23.098;2023-04-10T08:39:19;97023.44;;;12.71;100.00
7614;BME280;3848;42.016;23.098;2023-04-10T08:41:46;97042.28;;;13.09;100.00
7614;BME280;3848;42.016;23.098;2023-04-10T08:44:14;97021.78;;;13.13;100.00
7614;BME280;3848;42.016;23.098;2023-04-10T08:46:42;97033.84;;;13.49;100.00
7614;BME280;3848;42.016;23.098;2023-04-10T08:49:14;97027.69;;;13.59;100.00
7614;BME280;3848;42.016;23.098;2023-04-10T08:51:46;97021.63;;;13.63;100.00
7614;BME280;3848;42.016;23.098;2023-04-10T08:54:20;97033.84;;;13.87;100.00
7614;BME280;3848;42.016;23.098;2023-04-10T08:56:53;97023.13;;;14.09;100.00
7614;BME280;3848;42.016;23.098;2023-04-10T08:59:21;97023.06;;;14.47;100.00
7614;BME280;3848;42.016;23.098;2023-04-10T09:01:48;97016.84;;;14.57;97.19
7614;BME280;3848;42.016;23.098;2023-04-10T09:04:15;97020.25;;;14.58;100.00
7614;BME280;3848;42.016;23.098;2023-04-10T09:06:42;97022.44;;;14.72;100.00
7614;BME280;3848;42.016;23.098;2023-04-10T09:09:09;97008.03;;;15.00;95.55
7614;BME280;3848;42.016;23.098;2023-04-10T09:11:54;97013.53;;;14.86;87.98
7614;BME280;3848;42.016;23.098;2023-04-10T09:14:27;96999.69;;;14.93;85.19
7614;BME280;3848;42.016;23.098;2023-04-10T09:17:11;97006.56;;;15.22;95.73
7614;BME280;3848;42.016;23.098;2023-04-10T09:19:38;96994.75;;;15.46;86.43
7614;BME280;3848;42.016;23.098;2023-04-10T09:22:04;96990.69;;;15.10;79.35
7614;BME280;3848;42.016;23.098;2023-04-10T09:24:34;96984.72;;;15.39;85.05
7614;BME280;3848;42.016;23.098;2023-04-10T09:27:01;96993.81;;;15.78;80.75
7614;BME280;3848;42.016;23.098;2023-04-10T09:29:40;96988.50;;;15.84;75.47
7614;BME280;3848;42.016;23.098;2023-04-10T09:32:07;96992.38;;;15.70;76.25
7614;BME280;3848;42.016;23.098;2023-04-10T09:34:51;96988.00;;;15.73;77.20
7614;BME280;3848;42.016;23.098;2023-04-10T09:37:18;96985.19;;;15.81;74.90
7614;BME280;3848;42.016;23.098;2023-04-10T09:39:47;96988.50;;;15.27;67.11
7614;BME280;3848;42.016;23.098;2023-04-10T09:42:14;96980.00;;;14.95;73.07
7614;BME280;3848;42.016;23.098;2023-04-10T09:44:42;96976.31;;;14.75;79.25
7614;BME280;3848;42.016;23.098;2023-04-10T09:47:17;96976.31;;;15.06;82.44
7614;BME280;3848;42.016;23.098;2023-04-10T09:49:45;96971.13;;;15.37;72.63
7614;BME280;3848;42.016;23.098;2023-04-10T09:52:20;96975.59;;;15.88;76.27
7614;BME280;3848;42.016;23.098;2023-04-10T09:54:47;96960.91;;;15.66;72.13
7614;BME280;3848;42.016;23.098;2023-04-10T09:57:16;96965.53;;;15.81;71.42
7614;BME280;3848;42.016;23.098;2023-04-10T09:59:48;96968.69;;;15.90;65.00
7614;BME280;3848;42.016;23.098;2023-04-10T10:02:16;96968.34;;;15.74;71.72
7614;BME280;3848;42.016;23.098;2023-04-10T10:04:44;96963.19;;;15.46;74.32
7614;BME280;3848;42.016;23.098;2023-04-10T10:07:12;96965.03;;;15.41;65.37
7614;BME280;3848;42.016;23.098;2023-04-10T10:09:41;96961.13;;;15.29;66.10
7614;BME280;3848;42.016;23.098;2023-04-10T10:12:10;96949.16;;;15.57;69.94
7614;BME280;3848;42.016;23.098;2023-04-10T10:14:47;96954.22;;;15.89;69.82
7614;BME280;3848;42.016;23.098;2023-04-10T10:17:17;96957.16;;;16.03;67.39
7614;BME280;3848;42.016;23.098;2023-04-10T10:19:52;96950.88;;;15.87;56.91
7614;BME280;3848;42.016;23.098;2023-04-10T10:22:21;96950.16;;;15.53;60.45
7614;BME280;3848;42.016;23.098;2023-04-10T10:24:51;96951.72;;;15.59;64.95
7614;BME280;3848;42.016;23.098;2023-04-10T10:27:22;96952.72;;;15.53;61.59
7614;BME280;3848;42.016;23.098;2023-04-10T10:29:52;96932.22;;;15.53;62.52
7614;BME280;3848;42.016;23.098;2023-04-10T10:32:20;96943.66;;;15.71;65.22
7614;BME280;3848;42.016;23.098;2023-04-10T10:34:47;96947.63;;;15.52;60.41
7614;BME280;3848;42.016;23.098;2023-04-10T10:37:17;96942.81;;;15.43;62.87
7614;BME280;3848;42.016;23.098;2023-04-10T10:39:51;96934.34;;;15.39;63.88
7614;BME280;3848;42.016;23.098;2023-04-10T10:42:29;96921.50;;;15.41;62.41
7614;BME280;3848;42.016;23.098;2023-04-10T10:45:08;96928.59;;;15.62;64.20
7614;BME280;3848;42.016;23.098;2023-04-10T10:47:39;96918.94;;;15.42;60.74
7614;BME280;3848;42.016;23.098;2023-04-10T10:50:08;96922.06;;;15.50;60.44
7614;BME280;3848;42.016;23.098;2023-04-10T10:52:39;96913.31;;;15.57;60.08
7614;BME280;3848;42.016;23.098;2023-04-10T10:55:29;96919.81;;;15.69;62.66
7614;BME280;3848;42.016;23.098;2023-04-10T10:57:58;96898.69;;;15.63;61.26
7614;BME280;3848;42.016;23.098;2023-04-10T11:01:05;96908.72;;;15.69;64.47
7614;BME280;3848;42.016;23.098;2023-04-10T11:03:33;96904.00;;;15.83;65.72
7614;BME280;3848;42.016;23.098;2023-04-10T11:06:00;96902.25;;;16.10;63.70
7614;BME280;3848;42.016;23.098;2023-04-10T11:08:39;96874.69;;;16.40;61.50
7614;BME280;3848;42.016;23.098;2023-04-10T11:11:10;96891.22;;;16.81;56.83
7614;BME280;3848;42.016;23.098;2023-04-10T11:13:42;96869.22;;;16.97;57.54
7614;BME280;3848;42.016;23.098;2023-04-10T11:16:10;96887.72;;;17.29;54.14
7614;BME280;3848;42.016;23.098;2023-04-10T11:19:05;96892.34;;;16.74;50.12
7614;BME280;3848;42.016;23.098;2023-04-10T11:21:34;96841.88;;;16.26;52.68
7614;BME280;3848;42.016;23.098;2023-04-10T11:24:03;96887.16;;;16.75;52.79
7614;BME280;3848;42.016;23.098;2023-04-10T11:26:39;96878.69;;;16.49;51.52
7614;BME280;3848;42.016;23.098;2023-04-10T11:29:33;96883.53;;;16.56;53.67
7614;BME280;3848;42.016;23.098;2023-04-10T11:32:03;96881.56;;;16.63;53.64
7614;BME280;3848;42.016;23.098;2023-04-10T11:34:30;96871.97;;;16.44;54.07
7614;BME280;3848;42.016;23.098;2023-04-10T11:36:59;96871.16;;;16.69;54.18
7614;BME280;3848;42.016;23.098;2023-04-10T11:39:29;96858.63;;;16.83;54.85
7614;BME280;3848;42.016;23.098;2023-04-10T11:41:56;96866.06;;;16.67;52.76
7614;BME280;3848;42.016;23.098;2023-04-10T11:44:28;96870.78;;;16.78;52.20
7614;BME280;3848;42.016;23.098;2023-04-10T11:46:56;96853.53;;;16.58;50.78
7614;BME280;3848;42.016;23.098;2023-04-10T11:49:26;96864.38;;;16.41;50.34
7614;BME280;3848;42.016;23.098;2023-04-10T11:51:53;96863.13;;;16.30;51.01
7614;BME280;3848;42.016;23.098;2023-04-10T11:54:21;96842.50;;;16.08;54.68
7614;BME280;3848;42.016;23.098;2023-04-10T11:56:57;96856.91;;;16.35;55.25
7614;BME280;3848;42.016;23.098;2023-04-10T11:59:26;96847.19;;;16.45;51.69
7614;BME280;3848;42.016;23.098;2023-04-10T12:01:53;96850.19;;;16.56;50.77
7614;BME280;3848;42.016;23.098;2023-04-10T12:04:30;96845.00;;;16.81;51.30
7614;BME280;3848;42.016;23.098;2023-04-10T12:06:59;96836.56;;;17.01;49.71
7614;BME280;3848;42.016;23.098;2023-04-10T12:09:29;96844.75;;;17.11;49.67
7614;BME280;3848;42.016;23.098;2023-04-10T12:11:58;96841.69;;;17.01;47.97
7614;BME280;3848;42.016;23.098;2023-04-10T12:14:30;96830.44;;;16.82;50.42
7614;BME280;3848;42.016;23.098;2023-04-10T12:16:58;96832.47;;;16.73;49.44
7614;BME280;3848;42.016;23.098;2023-04-10T12:19:25;96837.06;;;16.64;49.85
7614;BME280;3848;42.016;23.098;2023-04-10T12:21:54;96832.59;;;16.47;48.71
7614;BME280;3848;42.016;23.098;2023-04-10T12:24:41;96833.13;;;16.55;48.84
7614;BME280;3848;42.016;23.098;2023-04-10T12:27:14;96830.09;;;16.69;47.80
7614;BME280;3848;42.016;23.098;2023-04-10T12:29:43;96828.00;;;16.55;45.64
7614;BME280;3848;42.016;23.098;2023-04-10T12:32:10;96826.94;;;16.84;45.50
7614;BME280;3848;42.016;23.098;2023-04-10T12:34:37;96818.31;;;17.09;45.42
7614;BME280;3848;42.016;23.098;2023-04-10T12:37:05;96814.69;;;16.69;45.52
7614;BME280;3848;42.016;23.098;2023-04-10T12:39:34;96817.84;;;16.52;46.71
7614;BME280;3848;42.016;23.098;2023-04-10T12:42:11;96819.34;;;16.11;46.58
7614;BME280;3848;42.016;23.098;2023-04-10T12:44:49;96805.63;;;16.35;50.41
7614;BME280;3848;42.016;23.098;2023-04-10T12:47:16;96802.75;;;16.68;47.88
7614;BME280;3848;42.016;23.098;2023-04-10T12:50:04;96789.53;;;16.32;49.00
7614;BME280;3848;42.016;23.098;2023-04-10T12:52:32;96805.22;;;16.23;52.13
7614;BME280;3848;42.016;23.098;2023-04-10T12:55:09;96799.63;;;16.36;52.13
7614;BME280;3848;42.016;23.098;2023-04-10T12:57:37;96786.91;;;16.33;52.44
7614;BME280;3848;42.016;23.098;2023-04-10T13:00:04;96784.81;;;16.43;52.01
7614;BME280;3848;42.016;23.098;2023-04-10T13:02:33;96797.31;;;16.52;51.24
7614;BME280;3848;42.016;23.098;2023-04-10T13:05:01;96783.78;;;16.25;50.71
7614;BME280;3848;42.016;23.098;2023-04-10T13:07:27;96789.13;;;16.19;51.08
7614;BME280;3848;42.016;23.098;2023-04-10T13:09:57;96781.09;;;16.05;52.77
7614;BME280;3848;42.016;23.098;2023-04-10T13:12:24;96779.97;;;15.89;55.49
7614;BME280;3848;42.016;23.098;2023-04-10T13:14:51;96791.41;;;15.78;53.40
7614;BME280;3848;42.016;23.098;2023-04-10T13:17:18;96790.94;;;15.67;52.58
7614;BME280;3848;42.016;23.098;2023-04-10T13:19:45;96793.97;;;15.78;52.75
7614;BME280;3848;42.016;23.098;2023-04-10T13:22:12;96792.50;;;15.71;50.15
7614;BME280;3848;42.016;23.098;2023-04-10T13:24:40;96787.38;;;15.71;52.24
7614;BME280;3848;42.016;23.098;2023-04-10T13:27:09;96788.06;;;15.76;52.59
7614;BME280;3848;42.016;23.098;2023-04-10T13:29:39;96790.09;;;15.92;51.46
7614;BME280;3848;42.016;23.098;2023-04-10T13:32:22;96788.94;;;16.00;51.88
7614;BME280;3848;42.016;23.098;2023-04-10T13:34:56;96790.09;;;15.92;50.72
7614;BME280;3848;42.016;23.098;2023-04-10T13:37:23;96785.94;;;15.64;51.52
7614;BME280;3848;42.016;23.098;2023-04-10T13:39:50;96788.66;;;15.58;51.93
7614;BME280;3848;42.016;23.098;2023-04-10T13:42:19;96781.38;;;15.46;52.81
7614;BME280;3848;42.016;23.098;2023-04-10T13:44:45;96801.03;;;15.45;52.37
7614;BME280;3848;42.016;23.098;2023-04-10T13:47:12;96790.78;;;15.45;55.72
7614;BME280;3848;42.016;23.098;2023-04-10T13:49:39;96782.63;;;15.34;52.95
7614;BME280;3848;42.016;23.098;2023-04-10T13:52:06;96784.38;;;15.32;53.83
7614;BME280;3848;42.016;23.098;2023-04-10T13:54:33;96784.97;;;15.14;54.03
7614;BME280;3848;42.016;23.098;2023-04-10T13:57:00;96784.44;;;15.31;53.00
7614;BME280;3848;42.016;23.098;2023-04-10T13:59:28;96771.88;;;15.49;52.95
7614;BME280;3848;42.016;23.098;2023-04-10T14:01:55;96768.25;;;15.30;53.44
7614;BME280;3848;42.016;23.098;2023-04-10T14:04:22;96774.50;;;15.21;50.62
7614;BME280;3848;42.016;23.098;2023-04-10T14:06:48;96765.69;;;15.30;54.31